Time;durP1;ratioP1;P1;durP2;ratioP2;P2;SDS_P1;SDS_P2;PMS_P1;PMS_P2;Temp;Humidity;BMP_temperature;BMP_pressure;BME280_temperature;BME280_humidity;BME280_pressure;Samples;Min_cycle;Max_cycle;Signal;HPM_P1;HPM_P2
2022/04/19 00:00:34;;;;;;;9.17;6.10;;;8.00;99.90;;;;;;5007523;28;20053;-80
2022/04/19 00:03:02;;;;;;;8.17;6.37;;;8.00;99.90;;;;;;4990338;28;20045;-80
2022/04/19 00:05:29;;;;;;;10.80;6.17;;;8.00;99.90;;;;;;4984802;28;20034;-80
2022/04/19 00:07:55;;;;;;;7.67;6.10;;;7.90;99.90;;;;;;4983412;28;20520;-80
2022/04/19 00:10:20;;;;;;;8.33;6.20;;;7.90;99.90;;;;;;4971746;28;20034;-80
2022/04/19 00:12:47;;;;;;;9.33;5.90;;;7.90;99.90;;;;;;4964346;28;20065;-80
2022/04/19 00:15:15;;;;;;;7.97;5.70;;;7.90;99.90;;;;;;4994477;28;20397;-79
2022/04/19 00:17:41;;;;;;;8.33;6.13;;;7.80;99.90;;;;;;5031996;28;20109;-78
2022/04/19 00:20:07;;;;;;;8.77;6.57;;;7.70;99.90;;;;;;4987403;28;20038;-78
2022/04/19 00:22:33;;;;;;;8.90;6.30;;;7.70;99.90;;;;;;4985081;28;20036;-80
2022/04/19 00:24:59;;;;;;;9.60;6.57;;;7.70;99.90;;;;;;4999832;28;20128;-80
2022/04/19 00:27:25;;;;;;;9.67;6.00;;;7.70;99.90;;;;;;5000387;28;20091;-79
2022/04/19 00:29:53;;;;;;;9.97;6.50;;;7.60;99.90;;;;;;5029111;28;20045;-80
2022/04/19 00:32:20;;;;;;;8.07;6.40;;;7.60;99.90;;;;;;4963148;28;21410;-80
2022/04/19 00:34:46;;;;;;;8.23;6.77;;;7.60;99.90;;;;;;4992874;28;20034;-80
2022/04/19 00:37:13;;;;;;;10.37;6.37;;;7.60;99.90;;;;;;4998677;28;20077;-80
2022/04/19 00:39:39;;;;;;;9.43;6.67;;;7.50;99.90;;;;;;5013545;28;20069;-80
2022/04/19 00:42:07;;;;;;;9.30;7.43;;;7.50;99.90;;;;;;4984439;28;20532;-80
2022/04/19 00:44:37;;;;;;;10.20;6.80;;;7.40;99.90;;;;;;5001695;28;20034;-80
2022/04/19 00:47:05;;;;;;;9.17;7.17;;;7.40;99.90;;;;;;4988370;28;20391;-80
2022/04/19 00:49:33;;;;;;;8.50;6.53;;;7.30;99.90;;;;;;4998405;28;20046;-80
2022/04/19 00:52:00;;;;;;;9.90;7.27;;;7.30;99.90;;;;;;4979910;28;20037;-80
2022/04/19 00:54:27;;;;;;;8.23;6.70;;;7.30;99.90;;;;;;4977566;28;20049;-80
2022/04/19 00:56:56;;;;;;;9.77;7.40;;;7.30;99.90;;;;;;4965207;28;20060;-81
2022/04/19 00:59:22;;;;;;;10.93;7.37;;;7.20;99.90;;;;;;5015221;28;20045;-80
2022/04/19 01:01:49;;;;;;;10.57;7.07;;;7.20;99.90;;;;;;4981896;28;20038;-80
2022/04/19 01:04:14;;;;;;;9.70;7.43;;;7.20;99.90;;;;;;4996152;28;20165;-80
2022/04/19 01:06:40;;;;;;;12.47;7.33;;;7.20;99.90;;;;;;4965788;28;20105;-80
2022/04/19 01:09:06;;;;;;;9.60;6.63;;;7.10;99.90;;;;;;4982478;28;20473;-80
2022/04/19 01:14:18;;;;;;;12.37;7.23;;;7.00;99.90;;;;;;4989054;28;20064;-80
2022/04/19 01:16:44;;;;;;;11.47;7.23;;;7.00;99.90;;;;;;4993338;28;20045;-80
2022/04/19 01:19:15;;;;;;;11.10;7.33;;;7.00;99.90;;;;;;5011124;28;20088;-80
2022/04/19 01:21:57;;;;;;;9.60;7.30;;;7.00;99.90;;;;;;5030548;28;20045;-80
2022/04/19 01:24:23;;;;;;;10.30;7.63;;;6.90;99.90;;;;;;4992008;28;20049;-80
2022/04/19 01:26:53;;;;;;;12.17;7.77;;;6.80;99.90;;;;;;4982949;28;20084;-80
2022/04/19 01:29:18;;;;;;;11.03;7.57;;;6.80;99.90;;;;;;4986410;28;20053;-80
2022/04/19 01:31:45;;;;;;;11.57;7.10;;;6.90;99.90;;;;;;5012270;28;20120;-80
2022/04/19 01:34:11;;;;;;;10.93;7.77;;;6.70;99.90;;;;;;4981935;28;20448;-79
2022/04/19 01:36:38;;;;;;;9.47;7.20;;;6.70;99.90;;;;;;4998955;28;20125;-80
2022/04/19 01:39:10;;;;;;;10.33;7.10;;;6.70;99.90;;;;;;5001914;28;20049;-80
2022/04/19 01:41:38;;;;;;;10.98;7.90;;;6.70;99.90;;;;;;5020550;28;20134;-80
2022/04/19 01:44:05;;;;;;;11.43;7.77;;;6.70;99.90;;;;;;5028526;28;20057;-80
2022/04/19 01:46:34;;;;;;;11.30;6.93;;;6.60;99.90;;;;;;5014155;28;20114;-80
2022/04/19 01:49:04;;;;;;;11.03;7.50;;;6.50;99.90;;;;;;5001007;28;20076;-80
2022/04/19 01:51:30;;;;;;;10.90;7.67;;;6.60;99.90;;;;;;5019702;28;20041;-80
2022/04/19 01:53:57;;;;;;;10.70;7.80;;;6.50;99.90;;;;;;4981238;28;20046;-80
2022/04/19 01:56:22;;;;;;;11.37;7.60;;;6.50;99.90;;;;;;4998479;28;20042;-80
2022/04/19 01:58:48;;;;;;;12.10;7.20;;;6.50;99.90;;;;;;4984647;28;20527;-80
2022/04/19 02:01:17;;;;;;;10.03;7.27;;;6.50;99.90;;;;;;5003818;28;20172;-80
2022/04/19 02:03:43;;;;;;;11.17;7.37;;;6.40;99.90;;;;;;4979142;28;20033;-80
2022/04/19 02:06:12;;;;;;;11.87;7.83;;;6.30;99.90;;;;;;4985037;28;20393;-80
2022/04/19 02:08:38;;;;;;;11.10;7.57;;;6.30;99.90;;;;;;4981922;28;20441;-80
2022/04/19 02:11:04;;;;;;;11.60;7.57;;;6.20;99.90;;;;;;5004333;28;20050;-79
2022/04/19 02:13:32;;;;;;;11.00;7.63;;;6.20;99.90;;;;;;5024177;28;20116;-80
2022/04/19 02:15:58;;;;;;;8.63;7.27;;;6.10;99.90;;;;;;4984021;28;20681;-80
2022/04/19 02:18:25;;;;;;;9.93;7.60;;;6.20;99.90;;;;;;4978676;28;20056;-80
2022/04/19 02:20:51;;;;;;;9.83;7.57;;;6.10;99.90;;;;;;4991671;28;20404;-80
2022/04/19 02:23:17;;;;;;;9.90;7.87;;;6.20;99.90;;;;;;4998200;28;20124;-80
2022/04/19 02:25:43;;;;;;;11.07;7.20;;;6.10;99.90;;;;;;4983096;28;20117;-80
2022/04/19 02:28:10;;;;;;;10.67;7.83;;;6.00;99.90;;;;;;4987956;28;20045;-80
2022/04/19 02:30:36;;;;;;;13.27;8.90;;;6.00;99.90;;;;;;4987048;28;20515;-80
2022/04/19 02:33:02;;;;;;;15.07;8.30;;;6.10;99.90;;;;;;5027634;28;20462;-80
2022/04/19 02:35:28;;;;;;;12.33;8.90;;;6.10;99.90;;;;;;5004563;28;20073;-79
2022/04/19 02:37:58;;;;;;;11.20;8.97;;;6.10;99.90;;;;;;4987193;28;20038;-80
2022/04/19 02:40:26;;;;;;;13.17;9.00;;;6.00;99.90;;;;;;4978609;28;20528;-80
2022/04/19 02:42:54;;;;;;;15.03;9.77;;;6.00;99.90;;;;;;4985168;28;20443;-80
2022/04/19 02:45:22;;;;;;;14.40;9.93;;;6.00;99.90;;;;;;4986765;28;20377;-80
2022/04/19 02:47:51;;;;;;;12.33;9.70;;;6.00;99.90;;;;;;4963562;28;20042;-80
2022/04/19 02:50:17;;;;;;;13.73;8.73;;;6.00;99.90;;;;;;4962811;28;20108;-80
2022/04/19 02:52:43;;;;;;;14.93;8.70;;;6.00;99.90;;;;;;4979530;28;20046;-80
2022/04/19 02:55:09;;;;;;;13.07;9.23;;;6.00;99.90;;;;;;4995395;28;20052;-78
2022/04/19 02:57:34;;;;;;;11.03;8.17;;;5.90;99.90;;;;;;4970801;28;20034;-78
2022/04/19 03:00:00;;;;;;;11.67;8.87;;;5.90;99.90;;;;;;4965912;28;20042;-80
2022/04/19 03:02:26;;;;;;;13.57;8.60;;;5.80;99.90;;;;;;4981773;28;20395;-80
2022/04/19 03:04:52;;;;;;;12.07;9.00;;;5.70;99.90;;;;;;4972078;28;20037;-81
2022/04/19 03:07:17;;;;;;;13.17;9.07;;;5.70;99.90;;;;;;4980100;28;20590;-80
2022/04/19 03:09:43;;;;;;;13.30;8.97;;;5.60;99.90;;;;;;5010702;28;20049;-80
2022/04/19 03:12:10;;;;;;;11.27;8.37;;;5.70;99.90;;;;;;4979246;28;20046;-80
2022/04/19 03:14:36;;;;;;;14.10;8.87;;;5.60;99.90;;;;;;4989476;28;20046;-80
2022/04/19 03:17:02;;;;;;;11.43;8.97;;;5.60;99.90;;;;;;4978347;28;20049;-80
2022/04/19 03:19:28;;;;;;;12.90;8.63;;;5.60;99.90;;;;;;5000267;28;20103;-80
2022/04/19 03:21:55;;;;;;;13.17;9.10;;;5.60;99.90;;;;;;5008172;28;20050;-80
2022/04/19 03:29:52;;;;;;;10.80;8.87;;;5.50;99.90;;;;;;4988852;28;20113;-80
2022/04/19 03:32:19;;;;;;;13.23;8.87;;;5.50;99.90;;;;;;4962028;28;20088;-80
2022/04/19 03:34:50;;;;;;;13.73;9.03;;;5.50;99.90;;;;;;5002992;28;20092;-80
2022/04/19 03:37:15;;;;;;;12.80;9.40;;;5.60;99.90;;;;;;5022596;28;20048;-80
2022/04/19 03:39:41;;;;;;;14.10;9.67;;;5.60;99.90;;;;;;4991928;28;20120;-80
2022/04/19 03:42:08;;;;;;;14.53;9.23;;;5.60;99.90;;;;;;4962886;28;20107;-80
2022/04/19 03:44:34;;;;;;;14.03;9.63;;;5.60;99.90;;;;;;4989983;28;20089;-80
2022/04/19 03:47:09;;;;;;;12.93;8.97;;;5.50;99.90;;;;;;4994732;28;20141;-80
2022/04/19 03:49:37;;;;;;;13.73;9.40;;;5.50;99.90;;;;;;5003925;28;20481;-80
2022/04/19 03:52:03;;;;;;;15.23;9.70;;;5.40;99.90;;;;;;4993112;28;20041;-80
2022/04/19 03:54:31;;;;;;;12.00;8.97;;;5.50;99.90;;;;;;4987632;28;20045;-80
2022/04/19 03:56:57;;;;;;;13.73;9.40;;;5.50;99.90;;;;;;5009518;28;20046;-80
2022/04/19 03:59:23;;;;;;;14.43;9.37;;;5.50;99.90;;;;;;4971157;28;20033;-79
2022/04/19 04:01:48;;;;;;;14.33;9.13;;;5.50;99.90;;;;;;5020014;28;20624;-80
2022/04/19 04:04:14;;;;;;;13.23;9.10;;;5.50;99.90;;;;;;4974156;28;20041;-80
2022/04/19 04:06:40;;;;;;;15.67;10.10;;;5.40;99.90;;;;;;4992656;28;20185;-80
2022/04/19 04:09:06;;;;;;;15.00;10.70;;;5.40;99.90;;;;;;4986536;28;20052;-80
2022/04/19 04:11:32;;;;;;;16.47;11.60;;;5.40;99.90;;;;;;4963135;28;20046;-80
2022/04/19 04:13:58;;;;;;;15.90;9.67;;;5.40;99.90;;;;;;5000089;28;20404;-80
2022/04/19 04:16:24;;;;;;;17.63;11.00;;;5.40;99.90;;;;;;4983200;28;20053;-80
2022/04/19 04:18:50;;;;;;;13.73;10.20;;;5.30;99.90;;;;;;4979590;28;20034;-80
2022/04/19 04:21:15;;;;;;;14.07;9.63;;;5.30;99.90;;;;;;4984909;28;20042;-80
2022/04/19 04:23:41;;;;;;;14.57;10.30;;;5.30;99.90;;;;;;4965886;28;20034;-80
2022/04/19 04:26:07;;;;;;;17.90;11.20;;;5.30;99.90;;;;;;4975084;28;20095;-80
2022/04/19 04:28:32;;;;;;;16.93;10.17;;;5.20;99.90;;;;;;4996708;28;20037;-80
2022/04/19 04:30:58;;;;;;;13.93;9.90;;;5.10;99.90;;;;;;4999126;28;20139;-80
2022/04/19 04:33:24;;;;;;;15.00;10.30;;;5.20;99.90;;;;;;4981571;28;20084;-80
2022/04/19 04:35:50;;;;;;;15.50;11.20;;;5.20;99.90;;;;;;4979771;28;20033;-80
2022/04/19 04:38:15;;;;;;;15.17;10.50;;;5.20;99.90;;;;;;4973650;28;20079;-80
2022/04/19 04:40:41;;;;;;;15.73;10.03;;;5.20;99.90;;;;;;4987656;28;20088;-80
2022/04/19 04:43:07;;;;;;;16.13;10.57;;;5.30;99.90;;;;;;4996161;28;20060;-80
2022/04/19 04:45:32;;;;;;;16.83;10.83;;;5.10;99.90;;;;;;4987694;28;20492;-80
2022/04/19 04:50:42;;;;;;;19.73;11.90;;;5.20;99.90;;;;;;5000432;28;20492;-80
2022/04/19 04:53:09;;;;;;;22.03;11.90;;;5.30;99.90;;;;;;4985943;28;20065;-80
2022/04/19 04:55:35;;;;;;;15.20;11.37;;;5.40;99.90;;;;;;4992336;28;20050;-80
2022/04/19 04:58:01;;;;;;;16.23;10.83;;;5.50;99.90;;;;;;4980230;28;20108;-80
2022/04/19 05:00:28;;;;;;;19.97;10.77;;;5.50;99.90;;;;;;4975473;28;20052;-80
2022/04/19 05:02:54;;;;;;;22.73;11.97;;;5.60;99.90;;;;;;5016712;28;20042;-80
2022/04/19 05:05:21;;;;;;;16.93;10.83;;;5.70;99.90;;;;;;4996408;28;20037;-79
2022/04/19 05:07:47;;;;;;;19.77;11.93;;;5.80;99.90;;;;;;4971936;28;20397;-79
2022/04/19 05:10:14;;;;;;;17.17;10.63;;;5.90;99.90;;;;;;4997157;28;20034;-79
2022/04/19 05:12:40;;;;;;;16.50;11.63;;;5.90;99.90;;;;;;5013691;28;20103;-80
2022/04/19 05:15:06;;;;;;;17.17;11.30;;;6.00;99.90;;;;;;5006641;28;20081;-79
2022/04/19 05:17:33;;;;;;;18.63;11.17;;;6.10;99.90;;;;;;5012560;28;20460;-80
2022/04/19 05:19:59;;;;;;;19.07;10.80;;;6.30;99.90;;;;;;4990514;28;20583;-80
2022/04/19 05:22:24;;;;;;;17.73;10.90;;;6.20;99.90;;;;;;4982386;28;20042;-80
2022/04/19 05:24:50;;;;;;;14.37;10.40;;;6.30;99.90;;;;;;4987161;28;20037;-80
2022/04/19 05:27:16;;;;;;;17.80;10.70;;;6.40;99.90;;;;;;4980405;28;20360;-79
2022/04/19 05:29:41;;;;;;;14.87;10.20;;;6.50;99.90;;;;;;4983108;28;20053;-80
2022/04/19 05:32:08;;;;;;;19.33;11.03;;;6.50;99.90;;;;;;4985249;28;20077;-77
2022/04/19 05:34:34;;;;;;;18.77;10.57;;;6.50;99.90;;;;;;4981764;28;20076;-77
2022/04/19 05:37:00;;;;;;;16.53;11.37;;;6.60;99.90;;;;;;5014528;28;20126;-78
2022/04/19 05:39:26;;;;;;;16.47;10.53;;;6.70;99.90;;;;;;4964670;28;20037;-78
2022/04/19 05:41:52;;;;;;;15.77;10.40;;;6.70;99.90;;;;;;4981269;28;20054;-78
2022/04/19 05:44:17;;;;;;;15.30;11.03;;;6.80;99.90;;;;;;4982380;28;20068;-78
2022/04/19 05:46:43;;;;;;;18.37;10.90;;;6.90;99.90;;;;;;4986971;28;20060;-78
2022/04/19 05:49:09;;;;;;;15.30;9.63;;;6.90;99.90;;;;;;4989548;28;20040;-78
2022/04/19 05:51:35;;;;;;;19.70;11.07;;;7.00;99.90;;;;;;4977791;28;20049;-78
2022/04/19 05:54:04;;;;;;;15.73;10.50;;;7.10;99.90;;;;;;4978379;28;20045;-78
2022/04/19 05:56:30;;;;;;;16.83;10.53;;;7.10;99.90;;;;;;4991247;28;20481;-78
2022/04/19 05:58:56;;;;;;;16.33;10.73;;;7.20;99.90;;;;;;4995838;28;20497;-77
2022/04/19 06:01:22;;;;;;;14.93;10.70;;;7.30;99.90;;;;;;4995283;28;20110;-78
2022/04/19 06:06:32;;;;;;;14.93;10.97;;;7.40;99.90;;;;;;4998179;28;20045;-78
2022/04/19 06:08:58;;;;;;;18.80;10.30;;;7.50;99.90;;;;;;4985324;28;20042;-78
2022/04/19 06:11:23;;;;;;;14.73;10.67;;;7.60;99.90;;;;;;4981369;28;20041;-78
2022/04/19 06:13:49;;;;;;;15.23;10.17;;;7.70;99.90;;;;;;4980921;28;20041;-78
2022/04/19 06:16:15;;;;;;;16.17;10.23;;;7.80;99.90;;;;;;4988467;28;20464;-77
2022/04/19 06:18:40;;;;;;;13.67;9.93;;;7.90;99.90;;;;;;4979253;28;20033;-78
2022/04/19 06:21:06;;;;;;;16.43;10.83;;;8.00;99.90;;;;;;4986859;28;20034;-78
2022/04/19 06:23:32;;;;;;;13.77;10.20;;;8.00;99.90;;;;;;4992549;28;20384;-78
2022/04/19 06:25:58;;;;;;;17.33;10.30;;;8.10;99.90;;;;;;5012488;28;20389;-78
2022/04/19 06:28:24;;;;;;;14.63;10.30;;;8.20;99.90;;;;;;5009424;28;20079;-79
2022/04/19 06:30:50;;;;;;;15.87;9.70;;;8.30;99.90;;;;;;5011802;28;20128;-78
2022/04/19 06:33:16;;;;;;;16.37;10.10;;;8.40;99.90;;;;;;4979094;28;20495;-78
2022/04/19 06:35:41;;;;;;;15.70;10.67;;;8.50;99.90;;;;;;4976088;28;20052;-78
2022/04/19 06:38:08;;;;;;;16.50;10.57;;;8.60;99.90;;;;;;5012707;28;20042;-79
2022/04/19 06:40:34;;;;;;;17.67;11.17;;;8.70;99.90;;;;;;5023461;28;20073;-79
2022/04/19 06:43:00;;;;;;;17.27;9.83;;;8.80;99.90;;;;;;5031098;28;20089;-79
2022/04/19 06:45:26;;;;;;;15.10;10.40;;;8.90;99.90;;;;;;4991601;28;20054;-79
2022/04/19 06:48:02;;;;;;;19.00;10.63;;;9.00;99.90;;;;;;5011369;28;20401;-79
2022/04/19 06:50:29;;;;;;;16.73;10.43;;;9.20;99.90;;;;;;5011575;28;20120;-79
2022/04/19 06:52:55;;;;;;;14.93;10.07;;;9.30;99.90;;;;;;5010134;28;20052;-79
2022/04/19 06:55:21;;;;;;;18.07;10.93;;;9.50;99.90;;;;;;4989184;28;20057;-79
2022/04/19 06:57:47;;;;;;;15.20;9.47;;;9.60;99.90;;;;;;5030344;28;20095;-79
2022/04/19 07:00:14;;;;;;;14.07;9.90;;;9.70;99.90;;;;;;4960755;28;20049;-79
2022/04/19 07:02:39;;;;;;;19.30;10.13;;;9.80;99.90;;;;;;4985802;28;20104;-79
2022/04/19 07:05:05;;;;;;;15.13;9.03;;;9.90;99.90;;;;;;5000000;28;20045;-79
2022/04/19 07:07:32;;;;;;;15.63;9.67;;;10.00;99.90;;;;;;4995238;28;20045;-79
2022/04/19 07:09:58;;;;;;;14.93;9.23;;;10.10;99.90;;;;;;4978834;28;20424;-79
2022/04/19 07:12:24;;;;;;;19.67;9.33;;;10.30;99.90;;;;;;4978665;28;20041;-79
2022/04/19 07:14:50;;;;;;;19.37;9.67;;;10.40;99.90;;;;;;5027168;28;20120;-79
2022/04/19 07:17:16;;;;;;;14.67;9.43;;;10.60;99.90;;;;;;5010192;28;20046;-79
2022/04/19 07:28:03;;;;;;;17.60;9.30;;;11.00;99.90;;;;;;4989725;28;20365;-79
2022/04/19 07:30:29;;;;;;;15.47;9.10;;;11.20;99.90;;;;;;4991545;28;20143;-78
2022/04/19 07:32:55;;;;;;;12.67;7.80;;;11.30;99.90;;;;;;5000492;28;20484;-79
2022/04/19 07:35:21;;;;;;;11.20;7.53;;;11.50;99.90;;;;;;4988165;28;20042;-79
2022/04/19 07:37:47;;;;;;;13.67;8.63;;;11.60;99.90;;;;;;5011750;28;20037;-79
2022/04/19 07:40:13;;;;;;;11.33;8.93;;;11.60;99.90;;;;;;5022854;28;20042;-79
2022/04/19 07:42:39;;;;;;;13.10;8.70;;;11.70;99.90;;;;;;5000599;28;20048;-79
2022/04/19 07:45:05;;;;;;;11.60;8.50;;;11.80;99.90;;;;;;5013860;28;20779;-79
2022/04/19 07:47:32;;;;;;;12.30;8.50;;;12.00;99.90;;;;;;4997238;28;20044;-80
2022/04/19 07:49:58;;;;;;;10.17;8.23;;;12.10;99.90;;;;;;5032862;28;20033;-80
2022/04/19 07:52:24;;;;;;;14.27;8.90;;;12.10;99.90;;;;;;5016995;28;20095;-79
2022/04/19 07:54:50;;;;;;;14.97;9.43;;;12.20;99.90;;;;;;4997358;28;20771;-79
2022/04/19 07:57:20;;;;;;;14.17;8.50;;;12.30;99.90;;;;;;5013404;28;20133;-80
2022/04/19 07:59:47;;;;;;;11.07;7.50;;;12.30;99.90;;;;;;5003152;28;20401;-79
2022/04/19 08:02:14;;;;;;;10.40;7.43;;;12.40;99.90;;;;;;5016606;28;20124;-79
2022/04/19 08:04:40;;;;;;;10.73;6.47;;;12.50;99.90;;;;;;4984466;28;20116;-79
2022/04/19 08:07:06;;;;;;;11.83;6.90;;;12.60;99.90;;;;;;5016992;28;20049;-79
2022/04/19 08:09:32;;;;;;;10.40;6.70;;;12.70;99.90;;;;;;5016027;28;20100;-80
2022/04/19 08:11:58;;;;;;;8.03;6.30;;;12.80;99.90;;;;;;4997269;28;20081;-79
2022/04/19 08:14:24;;;;;;;10.13;6.33;;;12.80;99.90;;;;;;5029155;28;20041;-79
2022/04/19 08:16:50;;;;;;;8.70;5.97;;;13.00;99.90;;;;;;5033223;28;20042;-79
2022/04/19 08:19:16;;;;;;;8.73;4.90;;;13.10;99.90;;;;;;5032671;28;20059;-78
2022/04/19 08:21:42;;;;;;;10.17;6.30;;;13.30;99.90;;;;;;5019690;28;20170;-79
2022/04/19 08:24:07;;;;;;;7.70;5.90;;;13.40;99.90;;;;;;4970589;28;20057;-80
2022/04/19 08:26:33;;;;;;;13.83;6.10;;;13.50;99.90;;;;;;4989547;28;20535;-79
2022/04/19 08:28:59;;;;;;;10.27;5.80;;;13.60;99.90;;;;;;4988685;28;20129;-79
2022/04/19 08:31:26;;;;;;;7.70;6.00;;;13.80;99.90;;;;;;4989122;28;20046;-79
2022/04/19 08:33:52;;;;;;;9.83;5.73;;;13.90;99.90;;;;;;4977497;28;20050;-80
2022/04/19 08:36:18;;;;;;;10.73;6.27;;;14.10;99.90;;;;;;4994122;28;20048;-80
2022/04/19 08:38:46;;;;;;;7.43;5.20;;;14.10;99.90;;;;;;4985916;28;20401;-79
2022/04/19 08:41:12;;;;;;;5.83;4.50;;;14.20;99.90;;;;;;4994909;28;20045;-80
2022/04/19 08:43:38;;;;;;;6.70;4.20;;;14.20;99.90;;;;;;4998470;28;20049;-79
2022/04/19 08:46:06;;;;;;;7.47;4.73;;;14.30;98.80;;;;;;4973421;28;20074;-80
2022/04/19 08:48:35;;;;;;;6.57;4.13;;;14.40;97.20;;;;;;4977191;28;20516;-80
2022/04/19 08:51:02;;;;;;;4.57;3.57;;;14.40;90.70;;;;;;4991733;28;20400;-80
2022/04/19 08:59:02;;;;;;;3.70;2.97;;;14.50;84.10;;;;;;4989012;28;20105;-79
2022/04/19 09:01:29;;;;;;;5.93;3.00;;;14.60;74.20;;;;;;5002290;28;20095;-79
2022/04/19 09:03:55;;;;;;;4.17;2.77;;;14.60;72.10;;;;;;5031307;28;20049;-80
2022/04/19 09:06:21;;;;;;;6.20;2.70;;;14.60;70.70;;;;;;5014957;28;20045;-79
2022/04/19 09:09:09;;;;;;;6.00;2.70;;;14.80;72.90;;;;;;4954910;28;20077;-80
2022/04/19 09:11:38;;;;;;;4.07;2.80;;;15.00;64.30;;;;;;5031695;28;20043;-79
2022/04/19 09:14:07;;;;;;;4.10;2.73;;;15.00;69.40;;;;;;5000013;28;20037;-80
2022/04/19 09:16:33;;;;;;;5.00;3.20;;;15.20;66.50;;;;;;5031817;28;20042;-80
2022/04/19 09:18:59;;;;;;;4.40;2.70;;;15.20;65.60;;;;;;5012054;28;20056;-79
2022/04/19 09:21:40;;;;;;;16.30;3.60;;;15.20;65.80;;;;;;4983169;28;20120;-79
2022/04/19 09:24:20;;;;;;;4.28;2.53;;;15.30;63.40;;;;;;4995752;28;20073;-79
2022/04/19 09:26:48;;;;;;;4.27;2.40;;;15.50;63.20;;;;;;4989266;28;20045;-79
2022/04/19 09:29:21;;;;;;;4.90;2.10;;;15.60;63.70;;;;;;4983953;28;20052;-79
2022/04/19 09:31:50;;;;;;;4.53;2.40;;;15.60;59.90;;;;;;5015179;28;20550;-80
2022/04/19 09:34:46;;;;;;;3.43;2.43;;;15.60;60.70;;;;;;4983177;28;20099;-80
2022/04/19 09:37:13;;;;;;;4.93;2.50;;;15.80;59.10;;;;;;4971997;28;20057;-80
2022/04/19 09:39:40;;;;;;;3.73;2.90;;;15.90;59.80;;;;;;4989735;28;20488;-79
2022/04/19 09:42:07;;;;;;;5.33;3.03;;;16.00;59.10;;;;;;4995542;28;20061;-80
2022/04/19 09:44:41;;;;;;;4.87;3.50;;;15.90;59.10;;;;;;4996636;28;20041;-80
2022/04/19 09:47:09;;;;;;;3.90;3.10;;;16.00;59.20;;;;;;5014765;28;20507;-81
2022/04/19 09:49:42;;;;;;;3.97;3.07;;;16.00;59.50;;;;;;5030915;28;20045;-80
2022/04/19 09:52:07;;;;;;;5.37;3.40;;;16.00;57.90;;;;;;5014508;28;20447;-80
2022/04/19 09:54:34;;;;;;;5.97;2.97;;;16.10;59.60;;;;;;4998251;28;20045;-81
2022/04/19 09:57:09;;;;;;;6.60;3.10;;;16.20;58.90;;;;;;4997874;28;20136;-80
2022/04/19 09:59:44;;;;;;;5.35;3.22;;;16.30;59.20;;;;;;5011119;28;20117;-80
2022/04/19 10:10:26;;;;;;;4.95;2.83;;;16.70;58.10;;;;;;4975487;28;20093;-80
2022/04/19 10:12:53;;;;;;;3.25;2.70;;;16.80;58.70;;;;;;4982024;28;20120;-80
2022/04/19 10:15:20;;;;;;;3.55;2.72;;;16.90;58.20;;;;;;5010606;28;20524;-81
2022/04/19 10:17:47;;;;;;;4.03;3.08;;;17.00;57.20;;;;;;4997061;28;20036;-81
2022/04/19 10:20:14;;;;;;;4.38;3.20;;;17.00;57.50;;;;;;4974277;28;20046;-81
2022/04/19 10:22:48;;;;;;;4.57;2.67;;;16.90;57.30;;;;;;4976918;28;20034;-80
2022/04/19 10:25:14;;;;;;;4.55;2.97;;;16.90;57.10;;;;;;4995173;28;20042;-81
2022/04/19 10:27:40;;;;;;;5.88;3.05;;;16.90;57.60;;;;;;4994669;28;20504;-80
2022/04/19 10:30:06;;;;;;;4.53;2.95;;;16.80;56.70;;;;;;4997636;28;20038;-81
2022/04/19 10:32:33;;;;;;;6.07;2.72;;;16.80;56.20;;;;;;5006310;28;20480;-80
2022/04/19 10:35:03;;;;;;;5.15;3.03;;;16.90;56.40;;;;;;4982052;28;20052;-81
2022/04/19 10:37:29;;;;;;;5.70;3.20;;;17.00;56.90;;;;;;5011875;28;20397;-80
2022/04/19 10:39:58;;;;;;;7.25;3.28;;;17.20;56.90;;;;;;4981494;28;20107;-81
2022/04/19 10:42:34;;;;;;;3.40;2.80;;;17.30;56.20;;;;;;5012073;28;20052;-81
2022/04/19 10:45:12;;;;;;;6.20;2.90;;;17.40;56.40;;;;;;4974677;28;20383;-80
2022/04/19 10:47:54;;;;;;;7.10;3.40;;;17.30;56.50;;;;;;4974017;28;20698;-80
2022/04/19 10:50:29;;;;;;;4.53;2.80;;;17.40;55.60;;;;;;5000409;28;20738;-79
2022/04/19 10:53:05;;;;;;;3.92;2.90;;;17.40;55.60;;;;;;5024918;28;20099;-79
2022/04/19 10:55:33;;;;;;;6.35;3.00;;;17.50;56.00;;;;;;4977321;28;20042;-80
2022/04/19 10:58:18;;;;;;;3.47;2.60;;;17.50;55.50;;;;;;5013068;28;20041;-80
2022/04/19 11:00:56;;;;;;;5.28;3.25;;;17.60;55.40;;;;;;4980228;28;20034;-80
2022/04/19 11:03:37;;;;;;;5.47;3.38;;;17.50;54.90;;;;;;5013324;28;20189;-78
2022/04/19 11:06:28;;;;;;;6.40;3.05;;;17.30;54.20;;;;;;4997719;28;20051;-79
2022/04/19 11:09:08;;;;;;;4.95;3.70;;;17.10;56.30;;;;;;5016107;28;20038;-80
2022/04/19 11:11:54;;;;;;;5.82;3.30;;;17.20;55.80;;;;;;5015245;28;20389;-79
2022/04/19 11:14:44;;;;;;;6.38;2.85;;;17.40;54.50;;;;;;4976400;28;20054;-79
2022/04/19 11:17:29;;;;;;;4.03;2.65;;;17.50;54.80;;;;;;4993895;28;20111;-79
2022/04/19 11:19:57;;;;;;;5.50;3.28;;;17.70;56.20;;;;;;5011721;28;20038;-80
2022/04/19 11:22:29;;;;;;;5.82;3.78;;;17.90;55.10;;;;;;5011214;28;20092;-80
2022/04/19 11:25:02;;;;;;;5.70;3.40;;;17.90;54.80;;;;;;4997760;28;20049;-80
2022/04/19 11:27:53;;;;;;;3.95;3.10;;;18.00;53.90;;;;;;4991658;28;20048;-82
2022/04/19 11:30:23;;;;;;;4.03;2.83;;;17.90;53.50;;;;;;5011819;28;20048;-80
2022/04/19 11:32:52;;;;;;;5.35;3.38;;;18.10;54.70;;;;;;5026385;28;20405;-81
2022/04/19 11:35:18;;;;;;;8.77;4.25;;;18.10;54.20;;;;;;5029644;28;20064;-82
2022/04/19 11:37:44;;;;;;;5.50;4.32;;;18.10;53.80;;;;;;4980099;28;20034;-81
2022/04/19 11:48:47;;;;;;;5.22;3.63;;;18.10;54.80;;;;;;4994060;28;20523;-82
2022/04/19 11:51:15;;;;;;;4.90;4.03;;;18.20;54.80;;;;;;4992168;28;20463;-81
2022/04/19 11:53:41;;;;;;;5.30;3.60;;;18.10;54.00;;;;;;5003021;28;20548;-81
2022/04/19 11:56:07;;;;;;;5.90;3.40;;;18.10;54.10;;;;;;4978089;28;20096;-81
2022/04/19 11:58:35;;;;;;;4.05;3.58;;;18.00;53.70;;;;;;5017481;28;20072;-81
2022/04/19 12:01:09;;;;;;;4.15;3.55;;;18.10;54.10;;;;;;4991287;28;20034;-81
2022/04/19 12:03:36;;;;;;;6.30;3.08;;;18.10;53.20;;;;;;5005977;28;20125;-81
2022/04/19 12:06:15;;;;;;;4.43;3.10;;;18.10;53.20;;;;;;4971276;28;20119;-81
2022/04/19 12:08:43;;;;;;;6.20;3.88;;;18.00;52.50;;;;;;4989999;28;20060;-81
2022/04/19 12:11:12;;;;;;;6.93;3.13;;;18.10;52.60;;;;;;5001793;28;20443;-81
2022/04/19 12:13:41;;;;;;;4.65;2.30;;;18.10;53.00;;;;;;4993021;28;20050;-82
2022/04/19 12:16:09;;;;;;;7.75;3.05;;;18.20;52.20;;;;;;5003342;28;20099;-82
2022/04/19 12:18:36;;;;;;;4.40;2.35;;;18.10;52.20;;;;;;5000078;28;20505;-81
2022/04/19 12:21:04;;;;;;;2.42;2.10;;;18.20;51.60;;;;;;4980403;28;20038;-80
2022/04/19 12:23:31;;;;;;;2.92;2.20;;;18.20;51.30;;;;;;4981902;28;20045;-81
2022/04/19 12:26:07;;;;;;;5.18;2.58;;;18.30;51.80;;;;;;4982308;28;20042;-81
2022/04/19 12:28:45;;;;;;;8.80;2.92;;;18.50;52.30;;;;;;4974666;28;20049;-81
2022/04/19 12:31:34;;;;;;;3.42;2.65;;;18.50;51.90;;;;;;4999241;28;20038;-82
2022/04/19 12:34:01;;;;;;;5.13;2.80;;;18.40;51.20;;;;;;5005250;28;20584;-81
2022/04/19 12:36:27;;;;;;;4.35;2.55;;;18.20;51.70;;;;;;5031979;28;20382;-82
2022/04/19 12:39:04;;;;;;;4.18;2.85;;;18.00;51.30;;;;;;4990050;28;20080;-81
2022/04/19 12:41:45;;;;;;;3.58;2.42;;;17.90;51.60;;;;;;5012435;28;20129;-82
2022/04/19 12:44:15;;;;;;;4.97;2.83;;;17.90;53.10;;;;;;5025616;28;20045;-82
2022/04/19 12:46:43;;;;;;;5.30;2.95;;;17.90;52.40;;;;;;5012109;28;20073;-81
2022/04/19 12:49:21;;;;;;;5.20;3.03;;;17.90;53.20;;;;;;5012302;28;20054;-80
2022/04/19 12:52:07;;;;;;;6.25;3.63;;;18.10;52.00;;;;;;4996204;28;20041;-81
2022/04/19 12:54:34;;;;;;;4.95;2.70;;;18.20;51.10;;;;;;4995774;28;20389;-81
2022/04/19 12:57:02;;;;;;;2.67;2.30;;;18.10;51.30;;;;;;4973333;28;20125;-81
2022/04/19 12:59:30;;;;;;;3.78;3.08;;;18.20;51.60;;;;;;5000780;28;20054;-81
2022/04/19 13:01:56;;;;;;;5.53;2.42;;;18.30;52.10;;;;;;5006212;28;20072;-82
2022/04/19 13:04:22;;;;;;;5.22;2.83;;;18.40;52.50;;;;;;4974244;28;20481;-80
2022/04/19 13:12:17;;;;;;;5.45;3.05;;;18.70;51.40;;;;;;5001623;28;20046;-81
2022/04/19 13:14:48;;;;;;;3.38;3.00;;;18.80;52.00;;;;;;5007329;28;20041;-81
2022/04/19 13:17:14;;;;;;;6.10;3.10;;;18.80;52.10;;;;;;4984918;28;20049;-81
2022/04/19 13:19:43;;;;;;;5.32;3.85;;;18.90;51.90;;;;;;4970871;28;20049;-82
2022/04/19 13:22:10;;;;;;;6.72;2.80;;;19.00;52.70;;;;;;5007359;28;20095;-82
2022/04/19 13:24:38;;;;;;;3.42;3.13;;;19.00;53.20;;;;;;5012026;28;20042;-82
2022/04/19 13:27:07;;;;;;;4.50;2.90;;;18.90;52.10;;;;;;4984111;28;20057;-83
2022/04/19 13:29:40;;;;;;;5.88;3.22;;;18.50;51.40;;;;;;4981277;28;20041;-82
2022/04/19 13:32:07;;;;;;;4.00;3.47;;;18.20;51.60;;;;;;4955317;28;20477;-82
2022/04/19 13:34:33;;;;;;;4.40;2.90;;;18.20;52.30;;;;;;4987863;28;20041;-83
2022/04/19 13:37:00;;;;;;;4.18;3.45;;;18.30;52.20;;;;;;4986429;28;20087;-82
2022/04/19 13:39:26;;;;;;;4.63;3.58;;;18.40;52.40;;;;;;4995780;28;20167;-82